createdAt,value
2019-03-22T00:03:50.678Z,8.71
2019-03-22T00:08:55.465Z,8.57
2019-03-22T00:14:00.165Z,8.24
2019-03-22T00:19:04.894Z,8.55
2019-03-22T00:24:09.544Z,8.48
2019-03-22T00:29:14.186Z,8.66
2019-03-22T00:34:18.928Z,8.11
2019-03-22T00:39:24.537Z,7.69
2019-03-22T00:44:29.240Z,7.84
2019-03-22T00:49:33.977Z,7.76
2019-03-22T00:54:38.615Z,7.50
2019-03-22T00:59:43.360Z,7.87
2019-03-22T01:04:48.102Z,7.92
2019-03-22T01:09:52.843Z,7.68
2019-03-22T01:14:57.474Z,7.43
2019-03-22T01:20:02.132Z,7.69
2019-03-22T01:25:07.207Z,7.40
2019-03-22T01:30:18.474Z,7.72
2019-03-22T01:35:23.217Z,7.23
2019-03-22T01:40:28.940Z,7.35
2019-03-22T01:45:33.826Z,7.25
2019-03-22T01:50:38.568Z,7.37
2019-03-22T01:55:43.310Z,7.50
2019-03-22T02:00:47.962Z,7.18
2019-03-22T02:05:52.697Z,7.53
2019-03-22T02:10:57.334Z,7.73
2019-03-22T02:16:02.076Z,7.85
2019-03-22T02:21:06.636Z,7.57
2019-03-22T02:26:11.358Z,7.87
2019-03-22T02:31:15.998Z,8.03
2019-03-22T02:36:22.176Z,7.30
2019-03-22T02:41:26.928Z,7.48
2019-03-22T02:46:31.562Z,8.04
2019-03-22T02:51:36.301Z,7.85
2019-03-22T02:56:42.068Z,8.11
2019-03-22T03:01:46.717Z,8.56
2019-03-22T03:06:51.352Z,8.35
2019-03-22T03:11:57.018Z,8.06
2019-03-22T03:17:01.756Z,7.56
2019-03-22T03:22:06.390Z,7.78
2019-03-22T03:27:11.244Z,7.89
2019-03-22T03:32:15.992Z,8.04
2019-03-22T03:37:20.735Z,8.01
2019-03-22T03:42:25.469Z,7.86
2019-03-22T03:47:30.124Z,7.83
2019-03-22T03:52:34.752Z,7.92
2019-03-22T03:57:39.497Z,7.77
2019-03-22T04:02:44.340Z,7.77
2019-03-22T04:07:48.983Z,7.91
2019-03-22T04:12:53.721Z,7.28
2019-03-22T04:17:58.361Z,7.86
2019-03-22T04:23:04.656Z,7.73
2019-03-22T04:28:09.388Z,7.82
2019-03-22T04:33:15.139Z,7.85
2019-03-22T04:38:19.998Z,8.01
2019-03-22T04:43:26.075Z,7.71
2019-03-22T04:48:32.616Z,7.77
2019-03-22T04:53:40.383Z,7.23
2019-03-22T04:58:46.803Z,7.40
2019-03-22T05:03:51.287Z,7.96
2019-03-22T05:08:56.031Z,8.21
2019-03-22T05:14:00.669Z,8.98
2019-03-22T05:19:06.644Z,9.05
2019-03-22T05:24:11.385Z,8.47
2019-03-22T05:29:16.139Z,8.39
2019-03-22T05:34:20.764Z,8.22
2019-03-22T05:39:25.512Z,8.09
2019-03-22T05:44:30.171Z,8.60
2019-03-22T05:49:34.898Z,9.18
2019-03-22T05:54:39.741Z,9.32
2019-03-22T05:59:44.481Z,8.84
2019-03-22T06:04:49.230Z,9.14
2019-03-22T06:09:53.974Z,9.73
2019-03-22T06:14:58.711Z,9.70
2019-03-22T06:20:04.275Z,10.23
2019-03-22T06:25:09.131Z,10.24
2019-03-22T06:30:13.769Z,11.08
2019-03-22T06:35:18.500Z,11.18
2019-03-22T06:40:23.141Z,11.58
2019-03-22T06:45:27.781Z,11.84
2019-03-22T06:50:32.423Z,12.00
2019-03-22T06:55:37.164Z,11.64
2019-03-22T07:00:42.117Z,12.06
2019-03-22T07:05:47.885Z,12.00
2019-03-22T07:10:52.528Z,12.45
2019-03-22T07:15:57.263Z,12.71
2019-03-22T07:21:02.019Z,12.72
2019-03-22T07:26:06.854Z,13.19
2019-03-22T07:31:11.597Z,12.65
2019-03-22T07:36:16.443Z,12.80
2019-03-22T07:41:21.193Z,13.15
2019-03-22T07:46:25.844Z,12.09
2019-03-22T07:51:30.570Z,12.91
2019-03-22T07:56:35.317Z,12.92
2019-03-22T08:01:40.059Z,13.20
2019-03-22T08:06:44.903Z,14.49
2019-03-22T08:11:49.654Z,14.07
2019-03-22T08:16:54.283Z,14.92
2019-03-22T08:21:59.033Z,15.41
2019-03-22T08:27:03.797Z,15.29
2019-03-22T08:32:08.617Z,16.02
2019-03-22T08:37:13.370Z,16.18
2019-03-22T08:42:18.122Z,15.43
2019-03-22T08:47:33.257Z,16.33
2019-03-22T08:52:29.246Z,16.80
2019-03-22T08:57:33.882Z,16.94
2019-03-22T09:02:38.622Z,17.23
2019-03-22T09:07:43.409Z,16.93
2019-03-22T09:12:48.204Z,16.94
2019-03-22T09:17:53.063Z,17.71
2019-03-22T09:22:57.793Z,17.00
2019-03-22T09:28:02.546Z,16.34
2019-03-22T09:33:08.817Z,17.11
2019-03-22T09:38:13.735Z,18.19
2019-03-22T09:43:18.828Z,18.05
2019-03-22T09:48:23.791Z,18.32
2019-03-22T09:53:30.495Z,17.94
2019-03-22T09:58:36.650Z,18.38
2019-03-22T10:03:42.617Z,18.35
2019-03-22T10:08:48.364Z,18.70
2019-03-22T10:13:53.134Z,18.37
2019-03-22T10:18:57.880Z,18.29
2019-03-22T10:24:02.641Z,18.92
2019-03-22T10:29:08.368Z,17.87
2019-03-22T10:34:13.134Z,18.00
2019-03-22T10:39:19.396Z,17.96
2019-03-22T10:44:24.222Z,18.17
2019-03-22T10:49:29.084Z,18.06
2019-03-22T10:54:33.968Z,18.22
2019-03-22T10:59:38.875Z,19.56
2019-03-22T11:04:43.622Z,19.01
2019-03-22T11:09:48.364Z,19.32
2019-03-22T11:14:53.214Z,19.62
2019-03-22T11:19:58.055Z,18.33
2019-03-22T11:25:04.832Z,20.34
2019-03-22T11:30:11.813Z,20.48
2019-03-22T11:35:18.025Z,20.79
2019-03-22T11:40:22.769Z,19.93
2019-03-22T11:45:27.512Z,19.96
2019-03-22T11:50:32.250Z,20.10
2019-03-22T11:55:37.097Z,20.13
2019-03-22T12:00:41.770Z,20.21
2019-03-22T12:05:46.376Z,19.55
2019-03-22T12:10:51.125Z,19.88
2019-03-22T12:15:55.868Z,20.18
2019-03-22T12:21:00.512Z,20.62
2019-03-22T12:26:06.508Z,20.03
2019-03-22T12:31:11.444Z,20.31
2019-03-22T12:36:16.084Z,20.22
2019-03-22T12:41:20.918Z,20.17
2019-03-22T12:46:26.687Z,20.87
2019-03-22T12:51:31.432Z,20.48
2019-03-22T12:56:36.488Z,20.50
2019-03-22T13:01:41.231Z,20.95
2019-03-22T13:06:45.959Z,20.15
2019-03-22T13:11:52.700Z,20.39
2019-03-22T13:16:57.409Z,20.36
2019-03-22T13:22:02.062Z,20.67
2019-03-22T13:27:06.683Z,20.10
2019-03-22T13:32:11.427Z,20.36
2019-03-22T13:37:16.272Z,19.66
2019-03-22T13:42:21.021Z,19.94
2019-03-22T13:47:25.868Z,18.92
2019-03-22T13:52:30.426Z,19.37
2019-03-22T13:57:36.257Z,19.75
2019-03-22T14:02:42.694Z,20.61
2019-03-22T14:07:47.503Z,20.37
2019-03-22T14:12:52.350Z,19.90
2019-03-22T14:17:58.000Z,19.80
2019-03-22T14:23:03.671Z,19.73
2019-03-22T14:28:08.429Z,19.53
2019-03-22T14:33:13.868Z,19.36
2019-03-22T14:38:18.637Z,19.34
2019-03-22T14:43:24.483Z,19.27
2019-03-22T14:48:31.003Z,19.33
2019-03-22T14:53:35.726Z,19.73
2019-03-22T14:58:41.592Z,18.76
2019-03-22T15:03:46.341Z,18.38
2019-03-22T15:08:51.090Z,19.07
2019-03-22T15:14:01.388Z,18.63
2019-03-22T15:19:25.227Z,18.36
2019-03-22T15:24:41.745Z,17.36
2019-03-22T15:29:54.292Z,17.89
2019-03-22T15:35:12.759Z,18.00
2019-03-22T15:40:17.500Z,17.45
2019-03-22T15:45:22.474Z,17.71
2019-03-22T15:50:27.099Z,18.17
2019-03-22T15:55:33.400Z,17.97
2019-03-22T16:00:38.425Z,18.17
2019-03-22T16:05:43.795Z,18.62
2019-03-22T16:10:49.773Z,18.19
2019-03-22T16:15:56.363Z,18.02
2019-03-22T16:21:00.978Z,18.10
2019-03-22T16:26:05.929Z,17.39
2019-03-22T16:31:10.885Z,17.28
2019-03-22T16:36:15.665Z,17.45
2019-03-22T16:41:20.465Z,17.22
2019-03-22T16:46:25.718Z,16.76
2019-03-22T16:51:30.461Z,16.90
2019-03-22T16:56:35.235Z,16.48
2019-03-22T17:01:40.058Z,16.47
2019-03-22T17:06:44.639Z,15.85
2019-03-22T17:11:50.238Z,15.47
2019-03-22T17:16:55.208Z,15.60
2019-03-22T17:21:59.952Z,15.14
2019-03-22T17:27:04.591Z,14.67
2019-03-22T17:32:09.233Z,14.79
2019-03-22T17:37:13.975Z,14.57
2019-03-22T17:42:18.750Z,14.23
2019-03-22T17:47:23.370Z,14.15
2019-03-22T17:52:28.110Z,13.80
2019-03-22T17:57:32.760Z,13.82
2019-03-22T18:02:37.707Z,13.49
2019-03-22T18:07:44.073Z,13.45
2019-03-22T18:12:48.822Z,14.11
2019-03-22T18:17:54.220Z,14.26
2019-03-22T18:22:59.051Z,14.03
2019-03-22T18:28:03.698Z,13.92
2019-03-22T18:33:08.814Z,13.28
2019-03-22T18:38:13.865Z,13.58
2019-03-22T18:43:18.713Z,13.65
2019-03-22T18:48:23.451Z,12.84
2019-03-22T18:53:28.298Z,12.87
2019-03-22T18:58:34.066Z,12.29
2019-03-22T19:03:38.910Z,10.97
2019-03-22T19:08:43.656Z,12.13
2019-03-22T19:13:48.541Z,12.03
2019-03-22T19:18:53.352Z,12.28
2019-03-22T19:23:58.088Z,12.13
2019-03-22T19:29:02.834Z,11.99
2019-03-22T19:34:10.336Z,11.83
2019-03-22T19:39:14.977Z,11.64
2019-03-22T19:44:19.825Z,11.45
2019-03-22T19:49:24.564Z,10.84
2019-03-22T19:54:29.853Z,10.98
2019-03-22T19:59:34.762Z,11.07
2019-03-22T20:04:39.453Z,10.96
2019-03-22T20:09:44.209Z,11.12
2019-03-22T20:14:49.022Z,11.39
2019-03-22T20:19:54.894Z,11.58
2019-03-22T20:24:59.609Z,11.25
2019-03-22T20:30:06.444Z,11.19
2019-03-22T20:35:16.445Z,11.16
2019-03-22T20:40:19.574Z,10.39
2019-03-22T20:45:24.655Z,10.72
2019-03-22T20:50:35.695Z,10.12
2019-03-22T20:55:36.159Z,10.41
2019-03-22T21:00:40.905Z,9.74
2019-03-22T21:05:47.183Z,9.88
2019-03-22T21:10:51.936Z,9.91
2019-03-22T21:15:56.769Z,9.68
2019-03-22T21:21:01.520Z,9.40
2019-03-22T21:26:06.258Z,8.85
2019-03-22T21:31:10.999Z,8.93
2019-03-22T21:36:15.948Z,9.13
2019-03-22T21:41:20.690Z,8.97
2019-03-22T21:46:25.433Z,8.61
2019-03-22T21:51:30.279Z,9.19
2019-03-22T21:56:34.915Z,9.16
2019-03-22T22:01:39.547Z,8.94
2019-03-22T22:06:44.302Z,8.71
2019-03-22T22:11:49.249Z,9.04
2019-03-22T22:16:53.991Z,8.82
2019-03-22T22:21:58.605Z,8.74
2019-03-22T22:27:13.414Z,8.64
2019-03-22T22:32:11.904Z,8.37
2019-03-22T22:37:16.648Z,8.44
2019-03-22T22:42:21.388Z,8.24
2019-03-22T22:47:26.245Z,8.05
2019-03-22T22:52:32.514Z,8.17
2019-03-22T22:57:37.334Z,7.94
2019-03-22T23:02:42.102Z,7.41
2019-03-22T23:07:46.844Z,7.92
2019-03-22T23:12:52.207Z,7.64
2019-03-22T23:17:56.836Z,8.35
2019-03-22T23:23:01.473Z,7.76
2019-03-22T23:28:06.409Z,7.83
2019-03-22T23:33:11.164Z,7.71
2019-03-22T23:38:16.937Z,7.60
2019-03-22T23:43:21.675Z,7.21
2019-03-22T23:48:27.757Z,7.24
2019-03-22T23:53:32.392Z,7.38
2019-03-22T23:58:37.037Z,7.82
